Terminal Aerodrome Forecast
Issued by NWS Sioux Falls, SD

Home | Current Version | Previous Version | Graphics & Text | Print | Product List | Glossary Off
Versions: 1 2 3 4 5 6 7 8 9 10 11 12 13 14 15 16 17 18 19 20 21 22 23 24 25 26 27 28 29 30 31 32 33 34 35 36 37 38 39 40 41 42 43 44 45 46 47 48 49

000
FTUS43 KFSD 032323
TAFSUX
TAF
KSUX 032323Z 0400/0424 17011KT 2SM -SN BR OVC004
     FM040100 15009KT 5SM BR OVC006
     FM041000 19005KT 5SM BR BKN010
     FM041500 26006KT P6SM SCT025 SCT080
     FM041700 29007KT P6SM SCT080=

USA.gov is the U.S. government's official web portal to all federal, state and local government web resources and services.